This is the latest recevied weather packets stored in our database for station/object BMCB-5. If no packets are shown the sender has not sent any weather packets the latest 10 day(s).
| Time | Temp. | Humidity | Pressure | Rain* | Wind** | Luminosity | Snow |
|---|---|---|---|---|---|---|---|
| 1777462261 | 19.44° C | 38% | 1025.4 hPa | 0 mm | - | 396 W/m² | - |
| 1777458658 | 17.78° C | 42% | 1025.5 hPa | 0 mm | - | 546 W/m² | - |
| 1777456257 | 16.67° C | 43% | 1025.5 hPa | 0 mm | - | 504 W/m² | - |
| 1777454460 | 15.56° C | 44% | 1025.5 hPa | 0 mm | - | 466 W/m² | - |
| 1777453862 | 15° C | 44% | 1025.6 hPa | 0 mm | - | 452 W/m² | - |
| 1777450859 | 13.33° C | 47% | 1025.6 hPa | 0 mm | - | 368 W/m² | - |
| 1777447257 | 11.11° C | 50% | 1025.5 hPa | 0 mm | - | 254 W/m² | - |
| 1777439457 | 8.33° C | 57% | 1025.3 hPa | 0 mm | - | 6 W/m² | - |
| 1777437059 | 8.33° C | 56% | 1025.1 hPa | 0 mm | - | 0 W/m² | - |
| 1777435858 | 8.89° C | 55% | 1025.1 hPa | 0 mm | - | 0 W/m² | - |
| 1777434059 | 8.89° C | 55% | 1024.9 hPa | 0 mm | - | 0 W/m² | - |
| 1777433459 | 8.89° C | 56% | 1024.8 hPa | 0 mm | - | 0 W/m² | - |
| 1777428656 | 10° C | 57% | 1024.3 hPa | 0 mm | - | 0 W/m² | - |
| 1777423857 | 10.56° C | 58% | 1024.2 hPa | 0 mm | - | 0 W/m² | - |
| 1777420263 | 11.11° C | 55% | 1024.3 hPa | 0 mm | - | 0 W/m² | - |
| 1777419061 | 11.67° C | 54% | 1024.2 hPa | 0 mm | - | 0 W/m² | - |
| 1777417263 | 12.22° C | 51% | 1023.9 hPa | 0 mm | - | 0 W/m² | - |
| 1777414863 | 12.78° C | 48% | 1023.7 hPa | 0 mm | - | 0 W/m² | - |
| 1777409467 | 14.44° C | 46% | 1023.3 hPa | 0 mm | - | 0 W/m² | - |
| 1777408270 | 15° C | 44% | 1023.3 hPa | 0 mm | - | 0 W/m² | - |
| 1777404061 | 16.11° C | 44% | 1022.3 hPa | 0 mm | - | 0 W/m² | - |
| 1777399860 | 17.78° C | 41% | 1021.5 hPa | 0 mm | - | 14 W/m² | - |
| 1777397463 | 18.89° C | 39% | 1021.1 hPa | 0 mm | - | 24 W/m² | - |
| 1777394458 | 19.44° C | 40% | 1021 hPa | 0 mm | - | 30 W/m² | - |
| 1777381258 | 19.44° C | 41% | 1021.8 hPa | 0 mm | - | 404 W/m² | - |
* Rain latest hour (hover to see other rain measurements)
** Current wind speed in m/s (hover to see current wind gust speed)